Weather at Jack Barstow Airport

Public forecast

Using degrees Fahrenheit for public forecast. Weather courtesy of forecast.io.

Current aviation weather report (METAR) for Jack Barstow Airport

Retrieved 2020/09/22 03:35 UTC (19 minutes ago):

KIKW 220335Z AUTO 17003KT 10SM CLR 14/06 A3030 RMK AO2 T01370061

Closest aviation forecast (TAF) to Jack Barstow Airport

Closest forecast is MBS International Airport, 11.0 nm (20.4 km) SE. Retrieved 2020-09-22 00:22 UTC (4 hours ago):

TAF KMBS 212320Z 2200/2224 17007KT P6SM SKC FM220800 20006KT P6SM BKN200 FM221400 24009KT P6SM BKN140